Etusivu
METAR-TAF:

METAR-TAF

Lentoasemat :

Antonio B. Won Patin kansainvälinen lentoasema

Hagåtña, Guam, Yhdysvallat

Leveyspiiri: 13-29N, Pituuspiiri: 144-48E, korkeus merenpinnasta: 91 m

Tämänhetkinen sää

Tämä raportti tehtiin 11 minuuttia sitten, kello 10.54 UTC
Tuuli 7 kn idästä
Lämpötila 27°C
Kosteus 74%
Ilmanpaine 1012 hPa
Näkyvyys: 16.1 km
selkeää

METAR: PGUM 071054Z 08007KT 10SM CLR 27/22 A2989 RMK AO2 SLP115 T02670217

Aika: 21:05 (11:05 UTC)

Sääennuste

Tämä raportti tehtiin 5 tuntia ja 13 minuuttia sitten, kello 05.52 UTC
Ennuste voimassa 07. päivästä klo 06 UTC - 08. päivään klo 12 UTC
Tuuli 13 kn idästä puuskistuen 20 kn:hen
Näkyvyys: 10 km
Hajanaisia pilviä 2500 ft:n korkeudessa
From 07. päivästä klo 0800 UTC
Tuuli 7 kn idästä
Näkyvyys: 10 km
Hajanaisia pilviä 2400 ft:n korkeudessa

TAF: PGUM 070552Z 0706/0812 08013G20KT P6SM SCT025 FM070800 08007KT P6SM SCT024

Säähavainnot ja -ennusteet yli 4000 lentoasemalta (METAR- ja TAF-raportit).

Käytössä olevat sääasemat on merkitty karttaan keltaisilla ja punaisilla pisteillä.

Aseta hiiri pisteen päälle nähdäksesi sääaseman nimen.

Klikkaa sitten nähdäksesi säähavainnot ja -ennusteet.

Kartan vaihtaminen: klikkaa mustalla rastilla varustettuja vihreitä pisteitä, niin voit zoomata sisään; viivalla varustettua vihreää pistettä, niin voit zoomata ulos tai vihreitä nuolia, niin pääset viereisille kartoille.


METAR-TAF: